Time;durP1;ratioP1;P1;durP2;ratioP2;P2;SDS_P1;SDS_P2;PMS_P1;PMS_P2;Temp;Humidity;BMP_temperature;BMP_pressure;BME280_temperature;BME280_humidity;BME280_pressure;Samples;Min_cycle;Max_cycle;Signal;HPM_P1;HPM_P2
2022/11/12 00:02:12;;;;;;;;;;;16.40;98.10;;;;;;5072041;28;19909;-9
2022/11/12 00:04:38;;;;;;;;;;;16.30;98.10;;;;;;5072567;28;20064;-9
2022/11/12 00:07:03;;;;;;;;;;;16.40;98.10;;;;;;5073480;28;20158;-9
2022/11/12 00:09:29;;;;;;;;;;;16.30;98.10;;;;;;5071493;28;20308;-10
2022/11/12 00:11:55;;;;;;;;;;;16.30;98.10;;;;;;5073461;28;19939;-9
2022/11/12 00:14:20;;;;;;;;;;;16.40;98.10;;;;;;5074046;28;19971;-11
2022/11/12 00:16:46;;;;;;;;;;;16.30;98.10;;;;;;5072642;28;19909;-10
2022/11/12 00:19:11;;;;;;;;;;;16.30;98.10;;;;;;5073215;28;20225;-8
2022/11/12 00:21:37;;;;;;;;;;;16.30;98.00;;;;;;5072006;28;20180;-10
2022/11/12 00:24:03;;;;;;;;;;;16.30;98.00;;;;;;5071793;28;20274;-10
2022/11/12 00:26:28;;;;;;;;;;;16.30;98.00;;;;;;5072329;28;19909;-10
2022/11/12 00:28:54;;;;;;;;;;;16.30;98.00;;;;;;5071941;28;20266;-11
2022/11/12 00:31:20;;;;;;;;;;;16.30;98.00;;;;;;5073632;28;19923;-8
2022/11/12 00:33:45;;;;;;;;;;;16.30;98.20;;;;;;5073613;28;19908;-9
2022/11/12 00:36:11;;;;;;;;;;;16.30;97.90;;;;;;5073879;28;20281;-9
2022/11/12 00:38:37;;;;;;;;;;;16.30;97.90;;;;;;5075771;28;19909;-10
2022/11/12 00:41:02;;;;;;;;;;;16.30;97.90;;;;;;5075056;28;19922;-10
2022/11/12 00:43:28;;;;;;;;;;;16.30;97.80;;;;;;5075272;28;20126;-10
2022/11/12 00:45:53;;;;;;;;;;;16.30;97.80;;;;;;5057323;28;19908;-10
2022/11/12 00:48:19;;;;;;;;;;;16.40;97.80;;;;;;5056426;28;19947;-9
2022/11/12 00:50:45;;;;;;;;;;;16.30;97.80;;;;;;5057367;28;19935;-9
2022/11/12 00:53:10;;;;;;;;;;;16.40;97.80;;;;;;5075858;28;19969;-9
2022/11/12 00:55:36;;;;;;;;;;;16.40;97.80;;;;;;5074680;28;19920;-10
2022/11/12 00:58:02;;;;;;;;;;;16.30;97.70;;;;;;5075870;28;19955;-10
2022/11/12 01:00:27;;;;;;;;;;;16.40;98.00;;;;;;5078942;28;20384;-10
2022/11/12 01:02:53;;;;;;;;;;;16.40;97.70;;;;;;5079461;28;20072;-10
2022/11/12 01:05:18;;;;;;;;;;;16.30;97.70;;;;;;5078747;28;19919;-10
2022/11/12 01:07:44;;;;;;;;;;;16.30;97.60;;;;;;5078621;28;19908;-10
2022/11/12 01:10:10;;;;;;;;;;;16.30;97.60;;;;;;5079583;28;19919;-9
2022/11/12 01:12:36;;;;;;;;;;;16.30;97.60;;;;;;5079738;28;19931;-10
2022/11/12 01:15:02;;;;;;;;;;;16.30;97.90;;;;;;5079193;28;19908;-10
2022/11/12 01:17:28;;;;;;;;;;;16.30;97.60;;;;;;5077996;28;19908;-9
2022/11/12 01:19:53;;;;;;;;;;;16.40;97.60;;;;;;5059100;28;19938;-10
2022/11/12 01:22:19;;;;;;;;;;;16.30;97.60;;;;;;5076676;28;19917;-9
2022/11/12 01:24:45;;;;;;;;;;;16.30;97.60;;;;;;5074650;28;19920;-10
2022/11/12 01:27:10;;;;;;;;;;;16.30;97.60;;;;;;5076605;28;19908;-9
2022/11/12 01:29:36;;;;;;;;;;;16.30;97.50;;;;;;5075417;28;20047;-9
2022/11/12 01:32:01;;;;;;;;;;;16.30;97.60;;;;;;5057836;28;19913;-10
2022/11/12 01:34:27;;;;;;;;;;;16.30;97.60;;;;;;5058581;28;19978;-10
2022/11/12 01:36:52;;;;;;;;;;;16.30;97.60;;;;;;5059174;28;20213;-10
2022/11/12 01:39:18;;;;;;;;;;;16.30;97.50;;;;;;5060155;28;20240;-9
2022/11/12 01:41:44;;;;;;;;;;;16.30;97.60;;;;;;5078242;28;20292;-9
2022/11/12 01:44:09;;;;;;;;;;;16.30;97.60;;;;;;5076674;28;20266;-10
2022/11/12 01:46:37;;;;;;;;;;;16.30;97.50;;;;;;5077712;28;19924;-10
2022/11/12 01:49:08;;;;;;;;;;;16.30;97.60;;;;;;5076673;28;19919;-9
2022/11/12 01:51:36;;;;;;;;;;;16.30;97.50;;;;;;5075067;28;19924;-10
2022/11/12 01:54:05;;;;;;;;;;;16.30;97.50;;;;;;5078540;28;19920;-10
2022/11/12 01:56:31;;;;;;;;;;;16.30;97.50;;;;;;5060413;28;19908;-10
2022/11/12 01:59:01;;;;;;;;;;;16.30;97.50;;;;;;5077645;28;19978;-9
2022/11/12 02:01:27;;;;;;;;;;;16.30;97.50;;;;;;5077331;28;19959;-10
2022/11/12 02:03:53;;;;;;;;;;;16.30;97.50;;;;;;5076997;28;19908;-10
2022/11/12 02:06:19;;;;;;;;;;;16.30;97.50;;;;;;5076213;28;19936;-10
2022/11/12 02:08:44;;;;;;;;;;;16.20;97.40;;;;;;5076464;28;19961;-11
2022/11/12 02:11:15;;;;;;;;;;;16.20;97.40;;;;;;5078008;28;20006;-10
2022/11/12 02:14:03;;;;;;;;;;;16.30;97.50;;;;;;5061635;28;19934;-9
2022/11/12 02:16:31;;;;;;;;;;;16.20;97.40;;;;;;5078894;28;19908;-10
2022/11/12 02:18:57;;;;;;;;;;;16.20;97.40;;;;;;5078019;28;19959;-10
2022/11/12 02:21:23;;;;;;;;;;;16.20;97.40;;;;;;5077389;28;19940;-10
2022/11/12 02:24:01;;;;;;;;;;;16.20;97.40;;;;;;5077880;28;20187;-10
2022/11/12 02:26:28;;;;;;;;;;;16.20;97.40;;;;;;5078107;28;19908;-10
2022/11/12 02:28:54;;;;;;;;;;;16.20;97.30;;;;;;5077861;28;19970;-10
2022/11/12 02:31:20;;;;;;;;;;;16.20;97.30;;;;;;5077552;28;19920;-10
2022/11/12 02:33:45;;;;;;;;;;;16.20;97.30;;;;;;5059684;28;20174;-10
2022/11/12 02:36:11;;;;;;;;;;;16.20;97.30;;;;;;5077489;28;20239;-9
2022/11/12 02:38:36;;;;;;;;;;;16.20;97.30;;;;;;5075240;28;19909;-10
2022/11/12 02:41:02;;;;;;;;;;;16.20;97.30;;;;;;5076902;28;19916;-10
2022/11/12 02:43:27;;;;;;;;;;;16.20;97.30;;;;;;5073387;28;19909;-10
2022/11/12 02:45:53;;;;;;;;;;;16.20;97.20;;;;;;5054266;28;19938;-10
2022/11/12 02:48:19;;;;;;;;;;;16.20;97.20;;;;;;5072388;28;20277;-10
2022/11/12 02:50:46;;;;;;;;;;;16.20;97.20;;;;;;5074559;28;20090;-9
2022/11/12 02:53:11;;;;;;;;;;;16.20;97.20;;;;;;5072860;28;19920;-10
2022/11/12 02:55:37;;;;;;;;;;;16.20;97.20;;;;;;5056521;28;19974;-10
2022/11/12 02:58:03;;;;;;;;;;;16.20;97.20;;;;;;5074522;28;19974;-9
2022/11/12 03:00:28;;;;;;;;;;;16.20;97.10;;;;;;5075573;28;20064;-9
2022/11/12 03:03:00;;;;;;;;;;;16.20;97.20;;;;;;5076936;28;19917;-10
2022/11/12 03:05:26;;;;;;;;;;;16.20;97.10;;;;;;5059906;28;19909;-8
2022/11/12 03:07:56;;;;;;;;;;;16.20;97.10;;;;;;5059612;28;19993;-11
2022/11/12 03:10:22;;;;;;;;;;;16.20;97.10;;;;;;5077622;28;19909;-10
2022/11/12 03:12:48;;;;;;;;;;;16.20;97.00;;;;;;5060704;28;19974;-10
2022/11/12 03:15:13;;;;;;;;;;;16.20;97.10;;;;;;5059444;28;19918;-9
2022/11/12 03:17:39;;;;;;;;;;;16.20;97.10;;;;;;5059928;28;19918;-9
2022/11/12 03:20:05;;;;;;;;;;;16.10;97.00;;;;;;5076751;28;19952;-9
2022/11/12 03:22:30;;;;;;;;;;;16.10;97.00;;;;;;5058412;28;19955;-11
2022/11/12 03:24:56;;;;;;;;;;;16.20;97.00;;;;;;5075609;28;20495;-10
2022/11/12 03:27:21;;;;;;;;;;;16.10;96.90;;;;;;5058497;28;19916;-10
2022/11/12 03:29:47;;;;;;;;;;;16.20;97.00;;;;;;5057263;28;19975;-9
2022/11/12 03:32:13;;;;;;;;;;;16.10;96.90;;;;;;5057840;28;19920;-9
2022/11/12 03:34:38;;;;;;;;;;;16.10;96.90;;;;;;5059055;28;19944;-9
2022/11/12 03:37:04;;;;;;;;;;;16.10;96.90;;;;;;5058973;28;19959;-10
2022/11/12 03:39:29;;;;;;;;;;;16.10;96.90;;;;;;5059407;28;20265;-10
2022/11/12 03:41:55;;;;;;;;;;;16.10;96.90;;;;;;5076113;28;19958;-9
2022/11/12 03:44:21;;;;;;;;;;;16.10;96.90;;;;;;5076716;28;19913;-10
2022/11/12 03:46:46;;;;;;;;;;;16.10;96.90;;;;;;5074877;28;20257;-10
2022/11/12 03:49:12;;;;;;;;;;;16.10;96.80;;;;;;5056705;28;20011;-9
2022/11/12 03:51:37;;;;;;;;;;;16.10;96.80;;;;;;5056422;28;19924;-10
2022/11/12 03:54:03;;;;;;;;;;;16.10;96.80;;;;;;5056757;28;19919;-10
2022/11/12 03:56:28;;;;;;;;;;;16.10;97.10;;;;;;5056864;28;19908;-10
2022/11/12 03:58:54;;;;;;;;;;;16.10;96.80;;;;;;5057151;28;19997;-9
2022/11/12 04:01:20;;;;;;;;;;;16.10;96.80;;;;;;5058557;28;19926;-10
2022/11/12 04:03:45;;;;;;;;;;;16.10;96.80;;;;;;5076212;28;19973;-10
2022/11/12 04:08:55;;;;;;;;;;;16.10;96.80;;;;;;5076502;28;19957;-10
2022/11/12 04:11:21;;;;;;;;;;;16.00;96.70;;;;;;5058834;28;19912;-10
2022/11/12 04:13:46;;;;;;;;;;;16.00;96.70;;;;;;5058280;28;19909;-10
2022/11/12 04:21:55;;;;;;;;;;;16.10;96.70;;;;;;5074334;28;19981;-10
2022/11/12 04:27:04;;;;;;;;;;;16.00;96.60;;;;;;5072105;28;19934;-9
2022/11/12 04:32:15;;;;;;;;;;;16.00;96.50;;;;;;5074882;28;19927;-10
2022/11/12 04:34:40;;;;;;;;;;;16.00;96.50;;;;;;5057858;28;19908;-9
2022/11/12 04:37:06;;;;;;;;;;;16.00;96.50;;;;;;5074831;28;19920;-10
2022/11/12 04:39:31;;;;;;;;;;;16.00;96.50;;;;;;5057483;28;19966;-10
2022/11/12 04:44:58;;;;;;;;;;;16.00;96.40;;;;;;5074097;28;20480;-9
2022/11/12 04:47:28;;;;;;;;;;;16.00;96.40;;;;;;5057586;28;20007;-9
2022/11/12 04:49:53;;;;;;;;;;;16.00;96.40;;;;;;5075676;28;19912;-10
2022/11/12 04:52:19;;;;;;;;;;;16.00;96.40;;;;;;5074384;28;20201;-9
2022/11/12 04:54:45;;;;;;;;;;;16.00;96.40;;;;;;5055712;28;19908;-10
2022/11/12 04:57:10;;;;;;;;;;;16.00;96.40;;;;;;5056192;28;19909;-10
2022/11/12 04:59:36;;;;;;;;;;;16.00;96.40;;;;;;5074613;28;20445;-10
2022/11/12 05:02:01;;;;;;;;;;;16.00;96.30;;;;;;5055812;28;19912;-9
2022/11/12 05:04:28;;;;;;;;;;;16.00;96.30;;;;;;5055879;28;19970;-10
2022/11/12 05:06:57;;;;;;;;;;;16.00;96.30;;;;;;5056052;28;19919;-10
2022/11/12 05:09:24;;;;;;;;;;;15.90;96.30;;;;;;5075136;28;20005;-10
2022/11/12 05:11:50;;;;;;;;;;;16.00;96.30;;;;;;5074588;28;19952;-10
2022/11/12 05:14:16;;;;;;;;;;;15.90;96.20;;;;;;5057130;28;20006;-10
2022/11/12 05:16:42;;;;;;;;;;;15.90;96.20;;;;;;5057632;28;19919;-9
2022/11/12 05:19:07;;;;;;;;;;;15.90;96.20;;;;;;5080788;28;19912;-10
2022/11/12 05:24:17;;;;;;;;;;;15.90;96.20;;;;;;5092111;28;20212;-10
2022/11/12 05:26:43;;;;;;;;;;;15.90;96.20;;;;;;5092249;28;20068;-10
2022/11/12 05:29:08;;;;;;;;;;;15.80;96.30;;;;;;5092881;28;19909;-9
2022/11/12 05:31:34;;;;;;;;;;;15.80;96.30;;;;;;5074394;28;19939;-11
2022/11/12 05:34:00;;;;;;;;;;;15.80;96.30;;;;;;5092699;28;20185;-9
2022/11/12 05:36:26;;;;;;;;;;;15.80;96.40;;;;;;5075390;28;20000;-10
2022/11/12 05:38:51;;;;;;;;;;;15.90;96.30;;;;;;5074816;28;19908;-10
2022/11/12 05:41:17;;;;;;;;;;;16.30;95.30;;;;;;5092608;28;19908;-10
2022/11/12 05:43:43;;;;;;;;;;;16.70;94.10;;;;;;5091830;28;19935;-10
2022/11/12 05:46:08;;;;;;;;;;;17.10;92.80;;;;;;5077588;28;20002;-9
2022/11/12 05:48:34;;;;;;;;;;;17.50;91.50;;;;;;5095916;28;20233;-9
2022/11/12 05:50:59;;;;;;;;;;;17.80;90.20;;;;;;5095845;28;20020;-9
2022/11/12 05:53:25;;;;;;;;;;;18.10;88.20;;;;;;5097387;28;20289;-10
2022/11/12 05:55:52;;;;;;;;;;;18.30;86.60;;;;;;5114093;28;19908;-9
2022/11/12 05:58:17;;;;;;;;;;;18.40;85.40;;;;;;5114180;28;20220;-10
2022/11/12 06:00:43;;;;;;;;;;;18.40;84.80;;;;;;5098103;28;19908;-9
2022/11/12 06:03:09;;;;;;;;;;;18.40;84.50;;;;;;5098289;28;20007;-9
2022/11/12 06:05:36;;;;;;;;;;;18.40;84.60;;;;;;5077749;28;20056;-10
2022/11/12 06:08:02;;;;;;;;;;;18.30;84.70;;;;;;5095870;28;19908;-10
2022/11/12 06:10:28;;;;;;;;;;;18.30;84.90;;;;;;5095825;28;19911;-9
2022/11/12 06:12:54;;;;;;;;;;;18.20;85.20;;;;;;5096973;28;19912;-9
2022/11/12 06:15:20;;;;;;;;;;;18.10;85.80;;;;;;5079294;28;19919;-10
2022/11/12 06:17:45;;;;;;;;;;;18.00;86.40;;;;;;5097050;28;20272;-9
2022/11/12 06:20:11;;;;;;;;;;;17.90;86.90;;;;;;5096517;28;19957;-9
2022/11/12 06:22:37;;;;;;;;;;;17.90;87.50;;;;;;5096469;28;19948;-10
2022/11/12 06:25:03;;;;;;;;;;;17.80;88.10;;;;;;5096138;28;19912;-10
2022/11/12 06:27:28;;;;;;;;;;;17.70;88.70;;;;;;5079287;28;19960;-10
2022/11/12 06:29:54;;;;;;;;;;;17.60;89.30;;;;;;5096240;28;19973;-10
2022/11/12 06:32:19;;;;;;;;;;;17.50;90.00;;;;;;5095662;28;19928;-10
2022/11/12 06:34:45;;;;;;;;;;;17.40;90.20;;;;;;5095393;28;19912;-11
2022/11/12 06:37:10;;;;;;;;;;;17.30;90.60;;;;;;5075332;28;19995;-8
2022/11/12 06:39:36;;;;;;;;;;;17.20;90.80;;;;;;5074271;28;20247;-9
2022/11/12 06:42:02;;;;;;;;;;;17.10;91.20;;;;;;5062766;28;19997;-10
2022/11/12 06:44:27;;;;;;;;;;;17.00;91.50;;;;;;5079853;28;19966;-9
2022/11/12 06:46:53;;;;;;;;;;;17.00;91.80;;;;;;5077094;28;19908;-11
2022/11/12 06:49:19;;;;;;;;;;;16.90;92.10;;;;;;5074665;28;20286;-9
2022/11/12 06:51:44;;;;;;;;;;;16.80;92.30;;;;;;5075467;28;19965;-9
2022/11/12 06:54:10;;;;;;;;;;;16.70;92.50;;;;;;5058550;28;19935;-10
2022/11/12 06:56:35;;;;;;;;;;;16.70;92.80;;;;;;5075178;28;19915;-10
2022/11/12 06:59:02;;;;;;;;;;;16.60;93.00;;;;;;5074943;28;20190;-10
2022/11/12 07:01:28;;;;;;;;;;;16.60;93.20;;;;;;5073612;28;20221;-10
2022/11/12 07:03:53;;;;;;;;;;;16.50;93.30;;;;;;5089631;28;20258;-10
2022/11/12 07:06:19;;;;;;;;;;;16.50;93.50;;;;;;5072113;28;19908;-10
2022/11/12 07:08:46;;;;;;;;;;;16.40;93.50;;;;;;5059498;28;19915;-10
2022/11/12 07:11:11;;;;;;;;;;;16.40;93.60;;;;;;5056528;28;19909;-9
2022/11/12 07:13:37;;;;;;;;;;;16.40;93.60;;;;;;5054563;28;19919;-11
2022/11/12 07:16:04;;;;;;;;;;;16.40;93.60;;;;;;5057790;28;20180;-10
2022/11/12 07:18:31;;;;;;;;;;;16.40;93.60;;;;;;5069801;28;19908;-9
2022/11/12 07:21:01;;;;;;;;;;;16.40;93.60;;;;;;5055131;28;19916;-10
2022/11/12 07:23:26;;;;;;;;;;;16.50;93.40;;;;;;5056234;28;19999;-10
2022/11/12 07:26:03;;;;;;;;;;;16.70;92.90;;;;;;5074355;28;20349;-10
2022/11/12 07:28:29;;;;;;;;;;;16.90;92.40;;;;;;5073929;28;20194;-10
2022/11/12 07:30:58;;;;;;;;;;;17.00;91.80;;;;;;5074037;28;19908;-10
2022/11/12 07:33:24;;;;;;;;;;;17.20;91.20;;;;;;5073472;28;20082;-10
2022/11/12 07:36:03;;;;;;;;;;;17.30;90.80;;;;;;5073450;28;19915;-9
2022/11/12 07:38:31;;;;;;;;;;;17.40;90.50;;;;;;5054848;28;19919;-10
2022/11/12 07:41:05;;;;;;;;;;;17.60;89.40;;;;;;5072453;28;19909;-10
2022/11/12 07:43:31;;;;;;;;;;;17.60;88.40;;;;;;5072605;28;19998;-10
2022/11/12 07:45:58;;;;;;;;;;;17.70;87.60;;;;;;5051877;28;19919;-10
2022/11/12 07:48:24;;;;;;;;;;;17.80;86.90;;;;;;5072283;28;19908;-10
2022/11/12 07:50:49;;;;;;;;;;;17.80;86.50;;;;;;5072341;28;19923;-10
2022/11/12 07:53:15;;;;;;;;;;;17.80;86.80;;;;;;5073474;28;19920;-9
2022/11/12 07:55:40;;;;;;;;;;;17.70;87.10;;;;;;5056623;28;19909;-10
2022/11/12 07:58:07;;;;;;;;;;;17.60;87.30;;;;;;5074489;28;19908;-10
2022/11/12 08:00:32;;;;;;;;;;;17.60;87.70;;;;;;5071771;28;19973;-9
2022/11/12 08:02:59;;;;;;;;;;;17.80;87.20;;;;;;5071381;28;19908;-10
2022/11/12 08:05:25;;;;;;;;;;;18.90;82.90;;;;;;5047163;28;19999;-8
2022/11/12 08:07:51;;;;;;;;;;;20.00;75.40;;;;;;5068872;28;20015;-9
2022/11/12 08:10:16;;;;;;;;;;;20.70;70.00;;;;;;5063716;28;19919;-10
2022/11/12 08:12:42;;;;;;;;;;;21.20;66.20;;;;;;5070771;28;20014;-10
2022/11/12 08:15:07;;;;;;;;;;;21.70;63.60;;;;;;5070301;28;20212;-10
2022/11/12 08:17:36;;;;;;;;;;;22.00;61.50;;;;;;5053532;28;19919;-10
2022/11/12 08:20:02;;;;;;;;;;;22.20;59.80;;;;;;5050526;28;19917;-11
2022/11/12 08:22:27;;;;;;;;;;;22.50;59.00;;;;;;5064558;28;19931;-10
2022/11/12 08:24:53;;;;;;;;;;;22.80;58.20;;;;;;5068849;28;19973;-11
2022/11/12 08:27:19;;;;;;;;;;;23.00;57.50;;;;;;5065150;28;19951;-9
2022/11/12 08:29:44;;;;;;;;;;;23.20;56.80;;;;;;5069721;28;20062;-10
2022/11/12 08:32:10;;;;;;;;;;;23.40;56.30;;;;;;5065077;28;19920;-9
2022/11/12 08:34:40;;;;;;;;;;;23.60;55.80;;;;;;5071791;28;19919;-10
2022/11/12 08:37:06;;;;;;;;;;;23.70;55.20;;;;;;5053171;28;19908;-11
2022/11/12 08:39:32;;;;;;;;;;;23.90;54.80;;;;;;5069883;28;20285;-10
2022/11/12 08:41:57;;;;;;;;;;;24.00;54.30;;;;;;5070792;28;19916;-10
2022/11/12 08:44:23;;;;;;;;;;;24.20;53.90;;;;;;5070397;28;19959;-10
2022/11/12 08:46:49;;;;;;;;;;;24.50;53.20;;;;;;5084903;28;19909;-10
2022/11/12 08:49:15;;;;;;;;;;;24.80;52.60;;;;;;5051750;28;19913;-10
2022/11/12 08:51:41;;;;;;;;;;;25.00;52.10;;;;;;5052393;28;19960;-10
2022/11/12 08:54:06;;;;;;;;;;;25.30;51.70;;;;;;5067858;28;19944;-10
2022/11/12 08:56:32;;;;;;;;;;;25.40;51.30;;;;;;5069083;28;19917;-10
2022/11/12 08:58:58;;;;;;;;;;;25.60;51.00;;;;;;5068651;28;19909;-10
2022/11/12 09:01:24;;;;;;;;;;;25.70;50.60;;;;;;5052999;28;19913;-10
2022/11/12 09:03:50;;;;;;;;;;;25.70;50.30;;;;;;5068999;28;19908;-10
2022/11/12 09:06:15;;;;;;;;;;;25.80;50.10;;;;;;5069508;28;20054;-10
2022/11/12 09:08:41;;;;;;;;;;;25.90;49.90;;;;;;5069777;28;19940;-10
2022/11/12 09:11:07;;;;;;;;;;;26.00;49.70;;;;;;5085078;28;19909;-11
2022/11/12 09:13:33;;;;;;;;;;;26.00;49.50;;;;;;5053032;28;19955;-11
2022/11/12 09:15:59;;;;;;;;;;;25.80;49.50;;;;;;5071122;28;19917;-10
2022/11/12 09:18:26;;;;;;;;;;;25.70;49.50;;;;;;5085398;28;20208;-11
2022/11/12 09:20:52;;;;;;;;;;;25.30;49.60;;;;;;5101253;28;19912;-10
2022/11/12 09:23:17;;;;;;;;;;;24.70;49.80;;;;;;5081074;28;20022;-10
2022/11/12 09:25:43;;;;;;;;;;;24.20;50.50;;;;;;5094619;28;20258;-10
2022/11/12 09:28:14;;;;;;;;;;;23.70;51.00;;;;;;5076209;28;20146;-10
2022/11/12 09:30:41;;;;;;;;;;;23.40;51.60;;;;;;5095715;28;19961;-10
2022/11/12 09:33:07;;;;;;;;;;;23.00;52.10;;;;;;5095023;28;20393;-10
2022/11/12 09:35:32;;;;;;;;;;;22.70;52.80;;;;;;5075834;28;20039;-10
2022/11/12 09:37:58;;;;;;;;;;;22.40;53.40;;;;;;5075451;28;19904;-11
2022/11/12 09:40:36;;;;;;;;;;;22.10;54.00;;;;;;5092681;28;20002;-10
2022/11/12 09:43:08;;;;;;;;;;;21.80;54.50;;;;;;5075391;28;20270;-10
2022/11/12 09:45:34;;;;;;;;;;;21.60;55.10;;;;;;5075611;28;19912;-10
2022/11/12 09:48:02;;;;;;;;;;;21.50;55.70;;;;;;5073317;28;19995;-10
2022/11/12 09:50:32;;;;;;;;;;;21.30;56.20;;;;;;5076750;28;19916;-10
2022/11/12 09:53:01;;;;;;;;;;;21.10;56.60;;;;;;5093395;28;19913;-10
2022/11/12 09:55:29;;;;;;;;;;;21.00;57.10;;;;;;5093677;28;20015;-11
2022/11/12 09:57:55;;;;;;;;;;;20.90;57.60;;;;;;5093988;28;19908;-10
2022/11/12 10:00:21;;;;;;;;;;;20.80;58.00;;;;;;5093529;28;19908;-10
2022/11/12 10:03:00;;;;;;;;;;;20.70;58.40;;;;;;5093876;28;19919;-11
2022/11/12 10:05:41;;;;;;;;;;;20.60;58.80;;;;;;5092139;28;20353;-11
2022/11/12 10:08:25;;;;;;;;;;;20.50;59.30;;;;;;5074761;28;19912;-10
2022/11/12 10:11:11;;;;;;;;;;;20.40;59.70;;;;;;5091347;28;20019;-10
2022/11/12 10:13:40;;;;;;;;;;;20.30;60.20;;;;;;5081309;28;19973;-10
2022/11/12 10:19:02;;;;;;;;;;;20.20;61.40;;;;;;5094700;28;19922;-11
2022/11/12 10:21:45;;;;;;;;;;;20.10;62.10;;;;;;5093540;28;19913;-10
2022/11/12 10:24:11;;;;;;;;;;;20.10;64.80;;;;;;5075879;28;19913;-10
2022/11/12 10:26:38;;;;;;;;;;;20.10;70.00;;;;;;5076462;28;19916;-11
2022/11/12 10:29:09;;;;;;;;;;;20.10;72.10;;;;;;5091912;28;20243;-10
2022/11/12 10:31:35;;;;;;;;;;;20.20;71.70;;;;;;5091838;28;19917;-11
2022/11/12 10:34:13;;;;;;;;;;;20.20;72.60;;;;;;5094199;28;19920;-10
2022/11/12 10:36:42;;;;;;;;;;;20.20;73.40;;;;;;5074356;28;20392;-9
2022/11/12 10:39:08;;;;;;;;;;;20.20;74.30;;;;;;5091742;28;20018;-10
2022/11/12 10:41:33;;;;;;;;;;;20.30;76.70;;;;;;5072331;28;20273;-10
2022/11/12 10:44:00;;;;;;;;;;;20.30;77.30;;;;;;5072053;28;19908;-9
2022/11/12 10:46:33;;;;;;;;;;;20.40;77.20;;;;;;5073552;28;19990;-10
2022/11/12 10:48:59;;;;;;;;;;;20.30;78.00;;;;;;5091658;28;20122;-10
2022/11/12 10:51:27;;;;;;;;;;;20.30;80.20;;;;;;5091859;28;19909;-11
2022/11/12 10:53:53;;;;;;;;;;;20.30;80.50;;;;;;5090401;28;20057;-10
2022/11/12 10:56:29;;;;;;;;;;;20.30;82.10;;;;;;5072147;28;19919;-10
2022/11/12 10:59:14;;;;;;;;;;;20.30;81.90;;;;;;5091722;28;19908;-10
2022/11/12 11:01:41;;;;;;;;;;;20.30;82.30;;;;;;5089551;28;20174;-10
2022/11/12 11:04:21;;;;;;;;;;;20.30;83.10;;;;;;5089184;28;19919;-10
2022/11/12 11:06:47;;;;;;;;;;;20.30;83.30;;;;;;5071831;28;19908;-10
2022/11/12 11:09:17;;;;;;;;;;;20.20;83.90;;;;;;5090533;28;19942;-11
2022/11/12 11:11:49;;;;;;;;;;;20.20;84.70;;;;;;5092166;28;20248;-10
2022/11/12 11:14:21;;;;;;;;;;;20.20;87.70;;;;;;5091728;28;20171;-10
2022/11/12 11:16:48;;;;;;;;;;;20.10;87.80;;;;;;5074704;28;19908;-10
2022/11/12 11:19:13;;;;;;;;;;;20.10;88.10;;;;;;5071927;28;19915;-10
2022/11/12 11:21:42;;;;;;;;;;;20.10;88.30;;;;;;5071729;28;20016;-10
2022/11/12 11:24:31;;;;;;;;;;;20.10;88.50;;;;;;5090029;28;19931;-9
2022/11/12 11:27:06;;;;;;;;;;;20.00;88.30;;;;;;5059925;28;19998;-9
2022/11/12 11:29:50;;;;;;;;;;;20.00;88.70;;;;;;5088959;28;20008;-8
2022/11/12 11:32:24;;;;;;;;;;;20.00;89.70;;;;;;5071823;28;19915;-10
2022/11/12 11:35:09;;;;;;;;;;;20.00;90.10;;;;;;5089588;28;20014;-10
2022/11/12 11:37:52;;;;;;;;;;;19.90;90.70;;;;;;5084538;28;19915;-10
2022/11/12 11:40:26;;;;;;;;;;;19.90;91.50;;;;;;5088733;28;20382;-10
2022/11/12 11:42:52;;;;;;;;;;;20.00;92.00;;;;;;5068973;28;20205;-10
2022/11/12 11:45:21;;;;;;;;;;;20.00;92.10;;;;;;5069676;28;19908;-10
2022/11/12 11:47:56;;;;;;;;;;;20.00;92.40;;;;;;5087878;28;19973;-10
2022/11/12 11:50:32;;;;;;;;;;;20.00;92.70;;;;;;5069323;28;19908;-10
2022/11/12 11:53:13;;;;;;;;;;;20.00;92.90;;;;;;5069898;28;19919;-9
2022/11/12 11:55:44;;;;;;;;;;;20.00;93.10;;;;;;5089742;28;19912;-10
2022/11/12 11:58:13;;;;;;;;;;;20.00;93.10;;;;;;5070663;28;19908;-10
2022/11/12 12:00:44;;;;;;;;;;;20.10;92.90;;;;;;5068808;28;19916;-10
2022/11/12 12:03:12;;;;;;;;;;;20.10;92.80;;;;;;5087063;28;19908;-10
2022/11/12 12:05:41;;;;;;;;;;;20.10;93.00;;;;;;5069649;28;20080;-10
2022/11/12 12:08:08;;;;;;;;;;;20.00;93.00;;;;;;5085700;28;20101;-10
2022/11/12 12:11:03;;;;;;;;;;;20.00;93.00;;;;;;5085119;28;20060;-10
2022/11/12 12:13:49;;;;;;;;;;;20.00;93.00;;;;;;5052050;28;20100;-10
2022/11/12 12:16:17;;;;;;;;;;;20.00;93.20;;;;;;5057126;28;19969;-10
2022/11/12 12:18:50;;;;;;;;;;;20.00;93.20;;;;;;5085777;28;20224;-10
2022/11/12 12:21:17;;;;;;;;;;;20.10;93.20;;;;;;5068177;28;20295;-10
2022/11/12 12:23:54;;;;;;;;;;;20.00;93.10;;;;;;5087174;28;20203;-10
2022/11/12 12:26:34;;;;;;;;;;;20.10;93.20;;;;;;5070584;28;20138;-10
2022/11/12 12:29:05;;;;;;;;;;;20.10;93.00;;;;;;5088941;28;19908;-10
2022/11/12 12:31:36;;;;;;;;;;;20.00;92.80;;;;;;5073719;28;19923;-10
2022/11/12 12:34:05;;;;;;;;;;;20.00;92.80;;;;;;5078970;28;19908;-11
2022/11/12 12:36:35;;;;;;;;;;;20.00;92.70;;;;;;5097835;28;19919;-10
2022/11/12 12:39:23;;;;;;;;;;;20.00;92.00;;;;;;5099860;28;20040;-10
2022/11/12 12:41:59;;;;;;;;;;;20.00;92.20;;;;;;5117811;28;19908;-11
2022/11/12 12:44:58;;;;;;;;;;;19.90;91.70;;;;;;5083152;28;19912;-10
2022/11/12 12:47:12;;;;;;;;;;;19.90;91.50;;;;;;5073770;28;20011;-10
2022/11/12 12:49:39;;;;;;;;;;;19.90;91.30;;;;;;5068209;28;20010;-10
2022/11/12 12:52:04;;;;;;;;;;;19.80;91.20;;;;;;5056908;28;19916;-10
2022/11/12 12:54:36;;;;;;;;;;;19.80;90.90;;;;;;5076736;28;20216;-9
2022/11/12 12:57:02;;;;;;;;;;;19.80;90.70;;;;;;5085430;28;19937;-10
2022/11/12 12:59:28;;;;;;;;;;;19.80;90.70;;;;;;5096531;28;20001;-10
2022/11/12 13:02:26;;;;;;;;;;;19.70;90.40;;;;;;5087691;28;19911;-9
2022/11/12 13:04:56;;;;;;;;;;;19.70;90.40;;;;;;5079133;28;20006;-9
2022/11/12 13:07:49;;;;;;;;;;;19.70;90.40;;;;;;5096909;28;20065;-10
2022/11/12 13:10:33;;;;;;;;;;;19.70;90.40;;;;;;5070809;28;19991;-10
2022/11/12 13:13:25;;;;;;;;;;;19.70;90.30;;;;;;5096493;28;19912;-9
2022/11/12 13:15:53;;;;;;;;;;;19.60;90.20;;;;;;5093899;28;20416;-11
2022/11/12 13:18:37;;;;;;;;;;;19.60;90.20;;;;;;5096171;28;19912;-10
2022/11/12 13:21:15;;;;;;;;;;;19.60;90.10;;;;;;5096524;28;19908;-9
2022/11/12 13:26:50;;;;;;;;;;;19.50;90.10;;;;;;5096793;28;19919;-9
2022/11/12 13:29:36;;;;;;;;;;;19.60;90.10;;;;;;5079242;28;19919;-11
2022/11/12 13:32:20;;;;;;;;;;;19.50;90.10;;;;;;5084620;28;20009;-10
2022/11/12 13:35:12;;;;;;;;;;;19.50;90.20;;;;;;5094552;28;20382;-10
2022/11/12 13:37:43;;;;;;;;;;;19.50;90.10;;;;;;5076967;28;19908;-10
2022/11/12 13:40:13;;;;;;;;;;;19.50;90.10;;;;;;5096054;28;19953;-9
2022/11/12 13:42:48;;;;;;;;;;;19.50;90.30;;;;;;5078996;28;19916;-9
2022/11/12 13:45:14;;;;;;;;;;;19.40;90.00;;;;;;5095759;28;19954;-9
2022/11/12 13:47:40;;;;;;;;;;;19.40;89.90;;;;;;5095837;28;19914;-9
2022/11/12 13:50:07;;;;;;;;;;;19.40;89.80;;;;;;5096350;28;20313;-9
2022/11/12 13:52:46;;;;;;;;;;;19.40;89.90;;;;;;5096400;28;20196;-10
2022/11/12 13:55:17;;;;;;;;;;;19.40;90.00;;;;;;5096729;28;19915;-10
2022/11/12 13:57:52;;;;;;;;;;;19.40;89.90;;;;;;5096344;28;19908;-10
2022/11/12 14:00:21;;;;;;;;;;;19.40;90.00;;;;;;5095048;28;19939;-10
2022/11/12 14:02:53;;;;;;;;;;;19.30;89.60;;;;;;5095261;28;19995;-9
2022/11/12 14:05:20;;;;;;;;;;;19.30;89.50;;;;;;5095819;28;19908;-10
2022/11/12 14:07:50;;;;;;;;;;;19.30;89.30;;;;;;5098572;28;20174;-10
2022/11/12 14:10:35;;;;;;;;;;;19.30;88.90;;;;;;5112700;28;20548;-9
2022/11/12 14:13:36;;;;;;;;;;;19.30;89.00;;;;;;5099349;28;19916;-10
2022/11/12 14:16:20;;;;;;;;;;;19.30;88.80;;;;;;5037352;28;20480;-10
2022/11/12 14:19:04;;;;;;;;;;;19.30;89.20;;;;;;5058538;28;19908;-10
2022/11/12 14:21:30;;;;;;;;;;;19.30;88.70;;;;;;5079087;28;19913;-10
2022/11/12 14:23:56;;;;;;;;;;;19.20;88.50;;;;;;5079295;28;19939;-9
2022/11/12 14:26:38;;;;;;;;;;;19.20;88.80;;;;;;5061643;28;20424;-9
2022/11/12 14:29:17;;;;;;;;;;;19.20;88.30;;;;;;5078792;28;19908;-10
2022/11/12 14:31:43;;;;;;;;;;;19.20;88.40;;;;;;5061563;28;19913;-10
2022/11/12 14:34:25;;;;;;;;;;;19.20;88.60;;;;;;5082809;28;19908;-9
2022/11/12 14:36:54;;;;;;;;;;;19.20;88.80;;;;;;5061873;28;20329;-11
2022/11/12 14:39:24;;;;;;;;;;;19.20;89.20;;;;;;5078877;28;20499;-10
2022/11/12 14:41:50;;;;;;;;;;;19.20;89.40;;;;;;5078692;28;19931;-11
2022/11/12 14:44:18;;;;;;;;;;;19.10;89.70;;;;;;5096896;28;19916;-10
2022/11/12 14:46:45;;;;;;;;;;;19.10;89.90;;;;;;5100078;28;19908;-8
2022/11/12 14:49:25;;;;;;;;;;;19.10;90.00;;;;;;5098873;28;19958;-9
2022/11/12 14:52:08;;;;;;;;;;;19.10;90.10;;;;;;5115584;28;20072;-9
2022/11/12 14:54:41;;;;;;;;;;;19.10;90.20;;;;;;5099546;28;19955;-10
2022/11/12 14:57:13;;;;;;;;;;;19.00;90.30;;;;;;5098414;28;19909;-10